Time;durP1;ratioP1;P1;durP2;ratioP2;P2;SDS_P1;SDS_P2;PMS_P1;PMS_P2;Temp;Humidity;BMP_temperature;BMP_pressure;BME280_temperature;BME280_humidity;BME280_pressure;Samples;Min_cycle;Max_cycle;Signal;HPM_P1;HPM_P2
2023/12/07 00:03:52;;;;;;;96.80;47.70;;;;;;;-3.38;90.15;98607.46;436922;1251;98821;-40
2023/12/07 00:13:59;;;;;;;135.70;54.90;;;;;;;-3.21;90.38;98606.85;436917;1261;106931;-41
2023/12/07 00:24:03;;;;;;;134.70;56.70;;;;;;;-3.18;90.37;98609.54;436822;1254;99326;-40
2023/12/07 00:34:11;;;;;;;136.80;55.80;;;;;;;-3.31;90.17;98603.02;436986;1251;111895;-40
2023/12/07 00:44:19;;;;;;;134.30;52.80;;;;;;;-3.41;90.42;98607.20;436578;1248;272148;-40
2023/12/07 01:04:32;;;;;;;121.10;54.40;;;;;;;-3.45;90.53;98610.35;436812;1261;108358;-39
2023/12/07 01:14:39;;;;;;;106.80;47.70;;;;;;;-3.29;90.55;98619.17;436924;1248;99235;-42
2023/12/07 01:24:47;;;;;;;139.20;57.90;;;;;;;-3.17;90.31;98629.20;436948;1247;110959;-39
2023/12/07 01:34:54;;;;;;;138.10;59.10;;;;;;;-3.16;90.75;98632.41;436999;1251;106586;-39
2023/12/07 01:45:00;;;;;;;133.40;54.00;;;;;;;-3.23;90.57;98634.11;436826;1253;98559;-39
2023/12/07 01:55:10;;;;;;;136.80;57.30;;;;;;;-3.37;90.39;98636.60;436658;1251;110833;-39
2023/12/07 02:05:17;;;;;;;125.30;54.60;;;;;;;-3.48;90.50;98639.18;436652;1251;106929;-39
2023/12/07 02:15:25;;;;;;;131.80;57.20;;;;;;;-3.44;90.43;98642.95;436561;1251;98614;-40
2023/12/07 02:25:35;;;;;;;108.70;50.70;;;;;;;-3.33;90.70;98645.20;437196;1251;108261;-40
2023/12/07 02:35:43;;;;;;;148.60;61.80;;;;;;;-3.23;90.92;98650.83;436285;1252;99301;-39
2023/12/07 02:45:51;;;;;;;149.30;59.60;;;;;;;-3.29;90.83;98655.73;436450;1253;111370;-40
2023/12/07 02:55:58;;;;;;;143.20;59.40;;;;;;;-3.32;91.05;98668.27;436279;1253;106881;-41
2023/12/07 03:06:05;;;;;;;152.40;61.60;;;;;;;-3.42;90.95;98666.02;436400;1248;99242;-40
2023/12/07 03:16:13;;;;;;;129.40;55.80;;;;;;;-3.43;90.95;98667.19;436300;1251;111264;-39
2023/12/07 03:26:20;;;;;;;119.80;52.60;;;;;;;-3.33;91.12;98666.75;436236;1253;106718;-40
2023/12/07 03:36:28;;;;;;;134.10;50.80;;;;;;;-3.17;91.05;98676.89;436377;1253;99218;-40
2023/12/07 03:46:38;;;;;;;151.10;56.70;;;;;;;-3.12;91.34;98679.58;436379;1251;107783;-39
2023/12/07 03:56:45;;;;;;;144.80;53.60;;;;;;;-3.14;91.47;98680.65;436310;1253;98001;-39
2023/12/07 04:06:52;;;;;;;146.70;54.90;;;;;;;-3.21;91.53;98680.88;436277;1253;111473;-39
2023/12/07 04:16:59;;;;;;;138.20;54.50;;;;;;;-3.31;91.57;98691.44;436292;1248;107734;-40
2023/12/07 04:37:12;;;;;;;122.00;52.50;;;;;;;-3.11;91.64;98692.81;436265;1253;111007;-40
2023/12/07 04:47:19;;;;;;;110.80;46.30;;;;;;;-2.95;91.53;98700.33;436348;1250;107044;-39
2023/12/07 04:57:26;;;;;;;144.70;53.70;;;;;;;-2.84;92.02;98707.71;436674;1248;98817;-39
2023/12/07 05:07:33;;;;;;;141.10;54.50;;;;;;;-2.85;91.91;98716.79;436291;1248;107383;-39
2023/12/07 05:17:40;;;;;;;138.60;57.70;;;;;;;-2.94;91.75;98730.23;436185;1253;98013;-42
2023/12/07 05:27:48;;;;;;;159.70;64.00;;;;;;;-3.02;91.99;98743.95;436288;1253;112019;-40
2023/12/07 05:37:55;;;;;;;128.90;59.20;;;;;;;-3.03;91.54;98750.90;436206;1250;107096;-40
2023/12/07 05:48:02;;;;;;;127.90;56.80;;;;;;;-2.93;91.73;98757.41;436434;1253;99256;-38
2023/12/07 05:58:09;;;;;;;104.00;46.00;;;;;;;-2.81;91.87;98765.98;436401;1250;109619;-40
2023/12/07 06:08:16;;;;;;;162.70;62.80;;;;;;;-2.77;91.74;98774.39;436304;1253;97999;-40
2023/12/07 06:18:24;;;;;;;164.10;63.20;;;;;;;-2.84;91.96;98779.46;436491;1253;110688;-41
2023/12/07 06:48:45;;;;;;;147.60;60.40;;;;;;;-2.94;91.91;98800.95;436305;1252;112030;-42
2023/12/07 06:58:52;;;;;;;140.50;63.50;;;;;;;-2.79;92.11;98813.94;436265;1253;107566;-40
2023/12/07 07:08:59;;;;;;;184.70;72.80;;;;;;;-2.61;92.09;98820.37;436431;1250;99171;-40
2023/12/07 07:19:06;;;;;;;148.80;61.30;;;;;;;-2.55;92.36;98819.05;436351;1253;106671;-40
2023/12/07 07:29:14;;;;;;;142.50;60.10;;;;;;;-2.56;92.30;98825.75;436467;1253;97982;-40
2023/12/07 07:39:21;;;;;;;145.50;59.00;;;;;;;-2.56;92.31;98827.70;436300;1254;110597;-40
2023/12/07 07:49:28;;;;;;;141.00;56.80;;;;;;;-2.57;92.52;98827.01;436917;1248;106961;-41
2023/12/07 07:59:35;;;;;;;133.30;55.50;;;;;;;-2.46;92.30;98824.29;436488;1253;98820;-40
2023/12/07 08:09:42;;;;;;;109.50;51.20;;;;;;;-2.26;92.34;98831.23;436295;1248;112121;-39
2023/12/07 08:19:50;;;;;;;147.70;58.30;;;;;;;-2.07;92.57;98834.48;436274;1248;109317;-40
2023/12/07 08:29:57;;;;;;;157.50;63.10;;;;;;;-2.01;92.50;98839.03;436326;1251;99075;-40
2023/12/07 08:40:04;;;;;;;165.10;63.80;;;;;;;-1.94;92.84;98855.27;436276;1249;112659;-40
2023/12/07 08:50:12;;;;;;;177.30;72.60;;;;;;;-1.88;92.69;98870.27;436205;1261;109147;-39
2023/12/07 09:00:23;;;;;;;170.30;66.70;;;;;;;-1.79;92.64;98869.33;436585;1254;99168;-39
2023/12/07 09:10:31;;;;;;;142.20;57.90;;;;;;;-1.62;92.64;98877.32;436380;1261;110894;-39
2023/12/07 09:20:45;;;;;;;111.20;49.60;;;;;;;-1.34;92.50;98870.54;436256;1253;107302;-40
2023/12/07 09:30:53;;;;;;;142.80;61.20;;;;;;;-1.17;92.45;98873.57;436307;1248;99202;-40
2023/12/07 09:40:59;;;;;;;172.20;65.80;;;;;;;-1.09;92.71;98872.41;436274;1254;110412;-40
2023/12/07 09:51:07;;;;;;;150.20;62.80;;;;;;;-0.97;92.74;98869.62;436245;1261;97982;-40
2023/12/07 10:01:14;;;;;;;141.00;54.40;;;;;;;-1.04;92.64;98869.27;436460;1261;111197;-40
2023/12/07 10:11:22;;;;;;;114.80;49.50;;;;;;;-1.01;92.55;98865.86;436380;1253;107063;-40
2023/12/07 10:21:32;;;;;;;107.50;47.70;;;;;;;-0.83;92.53;98858.70;436235;1248;99313;-40
2023/12/07 10:31:37;;;;;;;132.80;50.50;;;;;;;-0.69;92.85;98861.88;436206;1251;111216;-41
2023/12/07 10:41:42;;;;;;;132.70;51.10;;;;;;;-0.72;92.66;98864.35;437103;1253;107605;-40
2023/12/07 10:51:46;;;;;;;141.00;53.20;;;;;;;-0.75;92.72;98863.97;436242;1253;117506;-40
2023/12/07 11:01:54;;;;;;;108.10;46.00;;;;;;;-0.73;92.57;98864.35;436372;1248;109397;-40
2023/12/07 11:12:05;;;;;;;95.10;44.70;;;;;;;-0.62;92.59;98862.93;436292;1253;99225;-40
2023/12/07 11:32:19;;;;;;;151.60;62.30;;;;;;;-0.55;93.07;98866.86;436443;1254;107839;-40
2023/12/07 11:42:35;;;;;;;142.10;57.60;;;;;;;-0.65;92.82;98861.42;436355;1248;98012;-39
2023/12/07 12:02:49;;;;;;;111.00;47.50;;;;;;;-0.59;92.63;98847.66;436185;1253;99088;-40
2023/12/07 12:23:03;;;;;;;124.60;54.20;;;;;;;-0.46;92.86;98855.89;436249;1253;111823;-40
2023/12/07 12:33:11;;;;;;;151.20;58.20;;;;;;;-0.57;92.75;98858.13;436299;1253;107390;-40
2023/12/07 12:53:22;;;;;;;129.90;51.20;;;;;;;-0.75;92.87;98858.48;436110;1253;111691;-40
2023/12/07 13:03:28;;;;;;;111.10;47.90;;;;;;;-0.70;92.60;98853.77;436151;1247;107304;-40
2023/12/07 13:13:35;;;;;;;106.70;47.30;;;;;;;-0.69;92.73;98859.61;436221;1248;98016;-39
2023/12/07 13:23:45;;;;;;;180.70;62.90;;;;;;;-0.61;93.20;98864.36;436171;1253;108419;-40
2023/12/07 13:33:52;;;;;;;128.10;47.70;;;;;;;-0.67;93.30;98874.77;436614;1253;99210;-39
2023/12/07 13:54:13;;;;;;;115.30;47.60;;;;;;;-0.96;93.19;98885.98;435924;1254;108222;-40
2023/12/07 14:04:39;;;;;;;118.10;49.70;;;;;;;-0.91;93.13;98899.59;436188;1248;97979;-39
2023/12/07 14:34:59;;;;;;;154.10;59.90;;;;;;;-1.04;93.40;98925.49;436195;1248;99687;-39
2023/12/07 14:45:09;;;;;;;148.00;57.00;;;;;;;-1.14;93.67;98932.20;436370;1252;111919;-40
2023/12/07 14:55:18;;;;;;;149.50;57.50;;;;;;;-1.24;93.63;98934.35;436170;1253;107245;-40
2023/12/07 15:05:25;;;;;;;128.90;53.60;;;;;;;-1.24;93.55;98936.80;436196;1254;99237;-40
2023/12/07 15:15:33;;;;;;;171.00;75.10;;;;;;;-1.09;93.71;98935.33;436210;1247;112130;-40
2023/12/07 15:25:41;;;;;;;132.50;53.70;;;;;;;-0.96;93.88;98934.84;436125;1248;108355;-40
2023/12/07 15:35:48;;;;;;;178.60;69.10;;;;;;;-0.88;94.17;98938.48;436305;1253;97976;-40
2023/12/07 15:56:01;;;;;;;181.80;71.60;;;;;;;-1.15;93.84;98946.00;436247;1253;107204;-40
2023/12/07 16:06:09;;;;;;;196.40;69.10;;;;;;;-1.22;93.99;98950.95;436237;1253;97978;-40
2023/12/07 16:16:16;;;;;;;177.30;67.10;;;;;;;-1.26;93.70;98958.79;436286;1253;111010;-39
2023/12/07 16:36:29;;;;;;;156.30;61.80;;;;;;;-1.15;93.92;98961.36;436431;1248;99253;-39
2023/12/07 16:46:36;;;;;;;209.30;76.90;;;;;;;-1.00;94.36;98963.55;436311;1248;108671;-39
2023/12/07 16:56:44;;;;;;;202.90;69.90;;;;;;;-1.07;94.08;98968.33;436172;1253;99377;-39
2023/12/07 17:06:52;;;;;;;188.50;63.20;;;;;;;-1.16;94.16;98966.29;436338;1253;111855;-41
2023/12/07 17:17:04;;;;;;;182.40;68.70;;;;;;;-1.20;94.30;98966.52;436268;1248;107477;-39
2023/12/07 17:27:11;;;;;;;188.10;68.30;;;;;;;-1.18;94.16;98971.36;436324;1253;98798;-41
2023/12/07 17:47:26;;;;;;;157.80;61.70;;;;;;;-0.94;94.19;98985.34;436211;1253;99012;-40
2023/12/07 17:57:34;;;;;;;200.50;70.90;;;;;;;-0.79;94.66;98984.33;436426;1253;111089;-40
2023/12/07 18:07:41;;;;;;;208.00;76.30;;;;;;;-0.83;94.28;98984.02;436277;1248;108545;-41
2023/12/07 18:27:55;;;;;;;219.70;80.90;;;;;;;-1.22;94.38;98988.11;436433;1250;110159;-40
2023/12/07 18:38:02;;;;;;;200.10;77.20;;;;;;;-1.23;94.28;98986.35;436230;1248;108414;-40
2023/12/07 18:48:09;;;;;;;196.50;73.30;;;;;;;-1.12;94.30;98984.42;436301;1248;99218;-40
2023/12/07 18:58:17;;;;;;;195.90;76.30;;;;;;;-0.95;94.58;98990.56;436344;1248;111161;-40
2023/12/07 19:08:24;;;;;;;222.60;81.60;;;;;;;-0.89;94.53;98988.65;436222;1252;107311;-41
2023/12/07 19:18:33;;;;;;;227.60;84.90;;;;;;;-0.97;94.32;98978.34;436477;1252;99028;-40
2023/12/07 19:38:46;;;;;;;196.40;75.20;;;;;;;-1.19;94.38;98982.83;436238;1248;99215;-40
2023/12/07 19:48:53;;;;;;;174.20;69.60;;;;;;;-1.23;94.44;98992.08;436320;1251;111476;-40
2023/12/07 19:59:01;;;;;;;183.50;71.30;;;;;;;-1.14;94.33;99002.48;436271;1249;108118;-39
2023/12/07 20:19:15;;;;;;;258.40;93.00;;;;;;;-0.98;94.76;98992.60;436455;1248;106646;-40
2023/12/07 20:29:25;;;;;;;271.80;94.40;;;;;;;-1.03;94.62;98999.15;435522;1251;98781;-39
2023/12/07 20:39:33;;;;;;;235.70;83.70;;;;;;;-1.14;94.53;99000.17;435693;1253;111236;-40
2023/12/07 20:49:40;;;;;;;249.00;86.80;;;;;;;-1.26;94.66;99007.89;435616;1253;107075;-40
2023/12/07 20:59:47;;;;;;;225.70;85.90;;;;;;;-1.26;94.53;99016.23;435719;1253;99221;-39
2023/12/07 21:20:02;;;;;;;257.20;89.60;;;;;;;-0.98;94.75;99019.56;435642;1250;99290;-40
2023/12/07 21:30:11;;;;;;;298.40;110.70;;;;;;;-0.93;94.76;99006.85;435505;1251;109830;-39
2023/12/07 21:40:19;;;;;;;242.00;90.10;;;;;;;-0.94;94.98;98986.20;435615;1253;107143;-40
2023/12/07 21:50:26;;;;;;;248.10;89.30;;;;;;;-1.08;94.64;98988.69;435477;1253;99263;-39
2023/12/07 22:00:33;;;;;;;262.40;87.50;;;;;;;-1.18;94.89;98983.67;435415;1253;112123;-39
2023/12/07 22:10:40;;;;;;;218.90;86.90;;;;;;;-1.23;94.63;98964.70;435424;1253;108850;-40
2023/12/07 22:20:48;;;;;;;210.90;78.90;;;;;;;-1.17;94.66;98952.37;435434;1253;99200;-39
2023/12/07 22:30:56;;;;;;;216.30;85.60;;;;;;;-1.09;94.77;98943.16;435460;1253;109078;-40
2023/12/07 22:41:01;;;;;;;265.00;97.90;;;;;;;-1.11;94.72;98935.02;435561;1250;98064;-41
2023/12/07 22:51:08;;;;;;;251.00;94.80;;;;;;;-1.17;94.92;98930.11;435460;1253;110800;-38
2023/12/07 23:01:16;;;;;;;267.70;94.30;;;;;;;-1.24;94.96;98903.27;435362;1253;108879;-39
2023/12/07 23:11:23;;;;;;;254.00;86.40;;;;;;;-1.28;94.71;98893.94;435353;1250;97984;-39
2023/12/07 23:21:32;;;;;;;258.40;88.90;;;;;;;-1.23;94.70;98899.04;435397;1253;111048;-39
2023/12/07 23:31:38;;;;;;;248.80;83.40;;;;;;;-1.14;95.15;98901.47;435373;1250;107620;-39
2023/12/07 23:41:45;;;;;;;329.40;98.20;;;;;;;-1.01;95.19;98906.66;435429;1253;99253;-42
